Time;durP1;ratioP1;P1;durP2;ratioP2;P2;SDS_P1;SDS_P2;PMS_P1;PMS_P2;Temp;Humidity;BMP_temperature;BMP_pressure;BME280_temperature;BME280_humidity;BME280_pressure;Samples;Min_cycle;Max_cycle;Signal;HPM_P1;HPM_P2
2022/06/24 00:00:43;;;;;;;5.27;4.90;;;22.70;48.60;;;;;;4985505;28;20491;-64
2022/06/24 00:03:19;;;;;;;4.30;4.10;;;22.70;48.60;;;;;;4984377;28;20433;-67
2022/06/24 00:05:47;;;;;;;4.67;4.37;;;22.70;48.60;;;;;;4986814;28;20469;-64
2022/06/24 00:08:13;;;;;;;3.90;3.70;;;22.70;48.60;;;;;;4984320;28;20506;-65
2022/06/24 00:10:38;;;;;;;4.00;3.73;;;22.70;48.60;;;;;;4988750;28;21725;-66
2022/06/24 00:13:05;;;;;;;4.60;4.30;;;22.70;48.60;;;;;;4984562;28;20188;-67
2022/06/24 00:15:33;;;;;;;3.93;3.63;;;22.70;48.60;;;;;;4984227;28;20196;-64
2022/06/24 00:18:12;;;;;;;4.33;4.13;;;22.70;48.70;;;;;;4987267;28;20438;-67
2022/06/24 00:20:46;;;;;;;3.87;3.67;;;22.70;48.60;;;;;;4984537;28;20533;-63
2022/06/24 00:23:15;;;;;;;5.13;4.83;;;22.70;48.60;;;;;;4982696;28;20416;-68
2022/06/24 00:25:41;;;;;;;4.20;3.90;;;22.70;48.70;;;;;;4989378;28;20687;-64
2022/06/24 00:28:11;;;;;;;3.90;3.70;;;22.70;48.60;;;;;;4984542;28;20503;-68
2022/06/24 00:30:49;;;;;;;4.10;3.90;;;22.70;48.60;;;;;;4984330;28;20437;-66
2022/06/24 00:33:25;;;;;;;4.00;3.80;;;22.70;48.70;;;;;;4986597;28;20437;-65
2022/06/24 00:35:56;;;;;;;3.90;3.70;;;22.70;48.70;;;;;;4983601;28;20532;-66
2022/06/24 00:38:31;;;;;;;4.10;3.90;;;22.70;48.70;;;;;;4982985;28;20441;-64
2022/06/24 00:41:01;;;;;;;3.70;3.50;;;22.70;48.60;;;;;;4989218;28;20875;-66
2022/06/24 00:43:29;;;;;;;4.07;3.87;;;22.70;49.50;;;;;;4986690;28;20642;-67
2022/06/24 00:46:20;;;;;;;3.60;3.40;;;22.70;48.70;;;;;;4993054;28;20936;-68
2022/06/24 00:48:48;;;;;;;3.50;3.30;;;22.70;48.70;;;;;;4976578;28;20800;-64
2022/06/24 00:51:15;;;;;;;4.67;4.47;;;22.70;48.70;;;;;;4988799;28;20449;-65
2022/06/24 00:53:47;;;;;;;3.93;3.60;;;22.70;48.70;;;;;;4989225;28;20464;-63
2022/06/24 00:56:14;;;;;;;3.43;3.23;;;22.70;48.70;;;;;;4992357;28;21345;-65
2022/06/24 00:58:49;;;;;;;4.00;3.80;;;22.70;48.80;;;;;;4990933;28;20433;-64
2022/06/24 01:01:15;;;;;;;4.10;3.90;;;22.70;48.70;;;;;;4990048;28;20460;-64
2022/06/24 01:03:42;;;;;;;3.80;3.60;;;22.70;48.80;;;;;;4985690;28;20562;-68
2022/06/24 01:06:09;;;;;;;4.07;3.87;;;22.70;48.80;;;;;;4986574;28;20472;-67
2022/06/24 01:08:35;;;;;;;4.10;3.90;;;22.70;48.80;;;;;;4988710;28;20495;-63
2022/06/24 01:11:01;;;;;;;3.93;3.73;;;22.70;48.80;;;;;;4993641;28;20441;-63
2022/06/24 01:13:27;;;;;;;3.43;3.23;;;22.70;48.70;;;;;;5003560;28;20437;-67
2022/06/24 01:15:54;;;;;;;3.60;3.10;;;22.70;48.70;;;;;;4998043;28;20540;-64
2022/06/24 01:18:20;;;;;;;4.60;4.17;;;22.70;48.80;;;;;;5005581;28;20444;-64
2022/06/24 01:20:46;;;;;;;3.97;3.67;;;22.70;48.80;;;;;;5005448;28;20477;-67
2022/06/24 01:23:12;;;;;;;3.90;3.70;;;22.70;48.80;;;;;;5003146;28;20246;-64
2022/06/24 01:25:38;;;;;;;4.20;4.00;;;22.70;48.80;;;;;;5005430;28;20681;-64
2022/06/24 01:28:04;;;;;;;3.70;3.50;;;22.70;48.80;;;;;;5002268;28;20448;-63
2022/06/24 01:30:29;;;;;;;4.17;3.77;;;22.70;48.80;;;;;;4991366;28;20241;-64
2022/06/24 01:32:55;;;;;;;3.67;3.37;;;22.70;48.80;;;;;;4984634;28;20192;-67
2022/06/24 01:35:21;;;;;;;3.77;3.57;;;22.70;48.80;;;;;;4985222;28;20376;-70
2022/06/24 01:37:46;;;;;;;3.90;3.70;;;22.70;48.80;;;;;;4989973;28;22040;-63
2022/06/24 01:40:12;;;;;;;3.70;3.50;;;22.80;48.90;;;;;;4987532;28;20207;-68
2022/06/24 01:42:38;;;;;;;3.87;3.63;;;22.70;48.80;;;;;;4989620;28;20242;-64
2022/06/24 01:45:05;;;;;;;3.70;3.50;;;22.80;48.90;;;;;;4987273;28;20549;-63
2022/06/24 01:47:30;;;;;;;3.63;3.43;;;22.70;48.80;;;;;;4987996;28;20274;-64
2022/06/24 01:49:56;;;;;;;3.57;3.37;;;22.70;48.80;;;;;;4988727;28;20936;-66
2022/06/24 01:52:22;;;;;;;3.60;3.40;;;22.70;48.80;;;;;;4987790;28;20205;-67
2022/06/24 01:54:47;;;;;;;3.40;3.20;;;22.70;48.90;;;;;;4985004;28;20192;-68
2022/06/24 01:57:13;;;;;;;3.50;3.30;;;22.70;48.90;;;;;;4985315;28;20224;-64
2022/06/24 01:59:38;;;;;;;3.63;3.43;;;22.70;48.90;;;;;;4993519;28;20651;-63
2022/06/24 02:02:04;;;;;;;3.40;3.20;;;22.70;48.90;;;;;;4988481;28;20204;-67
2022/06/24 02:04:30;;;;;;;3.57;3.37;;;22.70;49.00;;;;;;4988184;28;20184;-64
2022/06/24 02:06:55;;;;;;;3.80;3.60;;;22.70;49.00;;;;;;4987011;28;20262;-64
2022/06/24 02:09:21;;;;;;;3.93;3.73;;;22.70;49.00;;;;;;4987187;28;20668;-66
2022/06/24 02:14:31;;;;;;;3.77;3.57;;;22.70;49.00;;;;;;4990301;28;20282;-65
2022/06/24 02:16:57;;;;;;;3.27;3.07;;;22.70;49.00;;;;;;4985122;28;20548;-66
2022/06/24 02:19:23;;;;;;;3.30;3.10;;;22.70;49.00;;;;;;4987403;28;20286;-67
2022/06/24 02:21:48;;;;;;;3.47;3.27;;;22.70;49.00;;;;;;4986533;28;20184;-64
2022/06/24 02:24:15;;;;;;;3.40;3.20;;;22.70;49.00;;;;;;4990156;28;20194;-69
2022/06/24 02:26:42;;;;;;;3.50;3.30;;;22.70;49.00;;;;;;4986197;28;20350;-65
2022/06/24 02:29:08;;;;;;;4.00;3.60;;;22.80;49.10;;;;;;4987372;28;20884;-63
2022/06/24 02:31:34;;;;;;;3.27;3.07;;;22.70;49.00;;;;;;4987994;28;20442;-64
2022/06/24 02:33:59;;;;;;;4.60;3.37;;;22.70;49.10;;;;;;4986957;28;20198;-67
2022/06/24 02:36:25;;;;;;;3.73;3.43;;;22.70;49.10;;;;;;4986789;28;20204;-71
2022/06/24 02:38:51;;;;;;;4.17;3.60;;;22.80;49.10;;;;;;4987312;28;20196;-68
2022/06/24 02:41:16;;;;;;;2.77;2.67;;;22.70;49.20;;;;;;4985750;28;20203;-63
2022/06/24 02:43:42;;;;;;;3.60;3.40;;;22.70;49.10;;;;;;4985892;28;21002;-70
2022/06/24 02:46:09;;;;;;;3.07;2.87;;;22.70;49.10;;;;;;4993976;28;20224;-63
2022/06/24 02:48:36;;;;;;;3.40;3.20;;;22.80;49.20;;;;;;4986971;28;21856;-64
2022/06/24 02:51:06;;;;;;;3.30;3.10;;;22.70;49.10;;;;;;4986558;28;20444;-68
2022/06/24 02:53:32;;;;;;;3.00;2.80;;;22.70;49.20;;;;;;4986289;28;20433;-64
2022/06/24 02:56:06;;;;;;;3.93;3.60;;;22.70;49.20;;;;;;4985467;28;20457;-66
2022/06/24 02:58:32;;;;;;;2.97;2.77;;;22.70;49.20;;;;;;4991641;28;20448;-69
2022/06/24 03:00:59;;;;;;;3.17;2.97;;;22.70;49.20;;;;;;4992317;28;20430;-65
2022/06/24 03:03:25;;;;;;;3.00;2.70;;;22.70;49.20;;;;;;4983373;28;20263;-63
2022/06/24 03:05:51;;;;;;;3.80;3.50;;;22.70;49.30;;;;;;4984296;28;20971;-65
2022/06/24 03:08:18;;;;;;;3.33;3.03;;;22.70;49.20;;;;;;4990830;28;20193;-68
2022/06/24 03:10:44;;;;;;;3.43;3.23;;;22.70;49.20;;;;;;4984352;28;20425;-64
2022/06/24 03:13:11;;;;;;;3.03;2.93;;;22.70;49.20;;;;;;4985098;28;20457;-68
2022/06/24 03:15:38;;;;;;;3.20;3.00;;;22.80;49.30;;;;;;4986401;28;20447;-64
2022/06/24 03:18:04;;;;;;;3.27;3.07;;;22.70;49.20;;;;;;4989667;28;20445;-64
2022/06/24 03:20:31;;;;;;;2.87;2.70;;;22.70;49.20;;;;;;4990456;28;21271;-72
2022/06/24 03:22:56;;;;;;;3.00;2.80;;;22.70;49.20;;;;;;4989574;28;20440;-68
2022/06/24 03:25:22;;;;;;;3.10;2.90;;;22.80;49.30;;;;;;4984497;28;20889;-65
2022/06/24 03:27:48;;;;;;;2.93;2.73;;;22.80;49.40;;;;;;4984866;28;20183;-64
2022/06/24 03:30:14;;;;;;;2.90;2.70;;;22.70;49.30;;;;;;4985619;28;20313;-64
2022/06/24 03:32:40;;;;;;;3.00;2.80;;;22.70;49.40;;;;;;4991181;28;20203;-68
2022/06/24 03:35:06;;;;;;;2.83;2.63;;;22.70;49.30;;;;;;4989452;28;20192;-70
2022/06/24 03:37:32;;;;;;;2.77;2.67;;;22.70;49.30;;;;;;4984231;28;20223;-67
2022/06/24 03:39:58;;;;;;;2.77;2.67;;;22.70;49.40;;;;;;4986081;28;20465;-68
2022/06/24 03:42:24;;;;;;;2.77;2.60;;;22.80;49.50;;;;;;4984183;28;20499;-65
2022/06/24 03:44:50;;;;;;;2.77;2.67;;;22.80;49.50;;;;;;4986420;28;20457;-64
2022/06/24 03:47:16;;;;;;;2.80;2.60;;;22.70;49.40;;;;;;4989851;28;20200;-63
2022/06/24 03:49:41;;;;;;;2.63;2.43;;;22.80;49.50;;;;;;4987045;28;20437;-67
2022/06/24 03:52:07;;;;;;;2.77;2.57;;;22.70;49.40;;;;;;4985559;28;20220;-70
2022/06/24 03:54:34;;;;;;;2.60;2.50;;;22.80;49.50;;;;;;4985987;28;20207;-64
2022/06/24 03:56:59;;;;;;;2.90;2.70;;;22.80;49.70;;;;;;4984947;28;20460;-66
2022/06/24 03:59:25;;;;;;;3.00;2.80;;;22.70;49.50;;;;;;4989309;28;21235;-69
2022/06/24 04:01:51;;;;;;;3.17;2.90;;;22.70;49.40;;;;;;4985080;28;21102;-63
2022/06/24 04:04:16;;;;;;;2.70;2.60;;;22.70;49.50;;;;;;4988940;28;20189;-68
2022/06/24 04:06:42;;;;;;;2.73;2.60;;;22.70;49.60;;;;;;4991879;28;20223;-69
2022/06/24 04:09:08;;;;;;;3.00;2.80;;;22.80;49.60;;;;;;4985848;28;20672;-68
2022/06/24 04:11:33;;;;;;;2.53;2.43;;;22.70;49.50;;;;;;4985864;28;20207;-68
2022/06/24 04:14:00;;;;;;;3.17;2.97;;;22.80;49.60;;;;;;4987752;28;20189;-68
2022/06/24 04:16:26;;;;;;;2.73;2.57;;;22.70;49.50;;;;;;4986572;28;20180;-67
2022/06/24 04:18:51;;;;;;;2.80;2.70;;;22.80;49.60;;;;;;4992641;28;21005;-65
2022/06/24 04:21:17;;;;;;;2.47;2.37;;;22.70;49.60;;;;;;4987650;28;20452;-67
2022/06/24 04:23:44;;;;;;;3.00;2.80;;;22.70;49.50;;;;;;4987469;28;20265;-65
2022/06/24 04:26:11;;;;;;;2.83;2.63;;;22.70;49.50;;;;;;4987782;28;20211;-64
2022/06/24 04:28:37;;;;;;;3.20;3.00;;;22.80;49.70;;;;;;4990740;28;20543;-65
2022/06/24 04:31:03;;;;;;;3.70;2.80;;;22.70;49.60;;;;;;4988763;28;20533;-63
2022/06/24 04:33:29;;;;;;;3.07;2.90;;;22.70;49.60;;;;;;4990741;28;20444;-60
2022/06/24 04:35:55;;;;;;;2.50;2.30;;;22.70;49.60;;;;;;4985257;28;20195;-65
2022/06/24 04:38:20;;;;;;;2.50;2.37;;;22.70;49.60;;;;;;4986501;28;20197;-61
2022/06/24 04:40:46;;;;;;;2.47;2.30;;;22.80;49.70;;;;;;4983615;28;21060;-66
2022/06/24 04:43:12;;;;;;;2.57;2.47;;;22.80;49.80;;;;;;4985613;28;20271;-63
2022/06/24 04:45:38;;;;;;;3.03;2.90;;;22.80;50.50;;;;;;4987795;28;20223;-66
2022/06/24 04:48:05;;;;;;;6.43;2.60;;;22.80;49.70;;;;;;4991403;28;20532;-70
2022/06/24 04:50:31;;;;;;;7.73;2.73;;;22.80;49.70;;;;;;4989953;28;20435;-67
2022/06/24 04:52:56;;;;;;;2.87;2.77;;;22.90;49.90;;;;;;4985824;28;20826;-63
2022/06/24 04:55:22;;;;;;;3.00;2.90;;;22.90;49.80;;;;;;4993675;28;20283;-75
2022/06/24 04:57:48;;;;;;;2.97;2.77;;;22.90;49.80;;;;;;4979462;28;20279;-63
2022/06/24 05:00:15;;;;;;;2.97;2.77;;;22.90;49.80;;;;;;4987755;28;20483;-68
2022/06/24 05:02:41;;;;;;;2.60;2.50;;;22.90;49.80;;;;;;4985683;28;20203;-67
2022/06/24 05:05:11;;;;;;;3.30;3.10;;;22.90;49.90;;;;;;4986314;28;20448;-70
2022/06/24 05:07:38;;;;;;;4.70;3.17;;;22.90;49.90;;;;;;4981330;28;20446;-67
2022/06/24 05:10:04;;;;;;;2.83;2.63;;;22.90;50.00;;;;;;5000708;28;20442;-67
2022/06/24 05:12:30;;;;;;;3.13;2.93;;;23.00;50.10;;;;;;4994923;28;20448;-68
2022/06/24 05:14:56;;;;;;;2.87;2.70;;;22.90;49.90;;;;;;4999287;28;20449;-68
2022/06/24 05:17:23;;;;;;;3.07;2.77;;;22.90;49.90;;;;;;4980310;28;20210;-68
2022/06/24 05:19:48;;;;;;;3.07;2.87;;;23.00;50.00;;;;;;5004318;28;20441;-68
2022/06/24 05:22:14;;;;;;;2.73;2.63;;;23.00;50.00;;;;;;5000114;28;20511;-68
2022/06/24 05:24:39;;;;;;;3.03;2.83;;;23.00;50.00;;;;;;4992584;28;20192;-68
2022/06/24 05:27:05;;;;;;;3.03;2.87;;;23.00;50.00;;;;;;4999000;28;20301;-65
2022/06/24 05:29:31;;;;;;;3.33;3.13;;;23.00;50.00;;;;;;5001657;28;20236;-68
2022/06/24 05:31:56;;;;;;;2.83;2.70;;;23.00;50.00;;;;;;4992940;28;20301;-66
2022/06/24 05:34:22;;;;;;;2.97;2.87;;;22.90;49.90;;;;;;4993971;28;20180;-66
2022/06/24 05:36:47;;;;;;;3.30;3.10;;;23.00;50.00;;;;;;4989029;28;20188;-66
2022/06/24 05:39:13;;;;;;;3.50;3.30;;;22.90;50.00;;;;;;4990074;28;20672;-66
2022/06/24 05:41:41;;;;;;;2.70;2.60;;;23.00;50.10;;;;;;4985444;28;20271;-68
2022/06/24 05:44:07;;;;;;;2.63;2.53;;;23.00;50.10;;;;;;4982595;28;20704;-66
2022/06/24 05:46:32;;;;;;;3.67;3.47;;;23.00;50.10;;;;;;4986820;28;20496;-66
2022/06/24 05:48:58;;;;;;;3.40;3.20;;;23.00;50.10;;;;;;4990610;28;20966;-65
2022/06/24 05:51:24;;;;;;;4.53;3.60;;;23.00;50.10;;;;;;4992367;28;20180;-66
2022/06/24 05:56:34;;;;;;;3.20;3.00;;;23.00;50.20;;;;;;4984455;28;20257;-69
2022/06/24 05:59:00;;;;;;;3.67;3.37;;;23.00;50.20;;;;;;4989679;28;20449;-66
2022/06/24 06:01:27;;;;;;;2.80;2.70;;;23.00;50.30;;;;;;4987402;28;20192;-65
2022/06/24 06:03:52;;;;;;;3.20;3.00;;;23.00;50.20;;;;;;4989523;28;20192;-65
2022/06/24 06:06:18;;;;;;;2.67;2.57;;;23.00;50.30;;;;;;4997615;28;20480;-66
2022/06/24 06:08:44;;;;;;;2.87;2.77;;;23.00;50.30;;;;;;4991641;28;20192;-67
2022/06/24 06:11:17;;;;;;;3.43;3.23;;;23.00;50.30;;;;;;4983594;28;20220;-66
2022/06/24 06:13:45;;;;;;;3.20;3.10;;;23.00;50.30;;;;;;4990667;28;20219;-71
2022/06/24 06:16:11;;;;;;;2.70;2.60;;;23.00;50.40;;;;;;4989338;28;20433;-66
2022/06/24 06:18:36;;;;;;;3.50;3.23;;;23.00;50.40;;;;;;4989312;28;20438;-67
2022/06/24 06:21:03;;;;;;;3.07;2.87;;;23.00;50.30;;;;;;4995613;28;20611;-66
2022/06/24 06:23:29;;;;;;;3.00;2.80;;;23.00;50.40;;;;;;4988338;28;20597;-67
2022/06/24 06:25:59;;;;;;;2.70;2.60;;;23.00;50.40;;;;;;4987454;28;20465;-66
2022/06/24 06:28:25;;;;;;;3.40;3.20;;;23.00;50.40;;;;;;4991982;28;20232;-66
2022/06/24 06:30:51;;;;;;;7.13;3.10;;;23.00;50.40;;;;;;4989015;28;21632;-67
2022/06/24 06:33:17;;;;;;;3.10;3.00;;;23.00;50.40;;;;;;4989867;28;20192;-68
2022/06/24 06:35:43;;;;;;;3.30;3.10;;;23.00;50.40;;;;;;4991647;28;20180;-66
2022/06/24 06:38:08;;;;;;;3.50;3.17;;;23.00;50.40;;;;;;4981924;28;20762;-71
2022/06/24 06:40:35;;;;;;;3.40;3.20;;;23.00;50.40;;;;;;4988739;28;20983;-66
2022/06/24 06:43:02;;;;;;;3.77;3.37;;;23.00;50.50;;;;;;4986244;28;20212;-68
2022/06/24 06:45:28;;;;;;;3.87;3.57;;;23.00;50.50;;;;;;4985243;28;20812;-66
2022/06/24 06:47:54;;;;;;;3.30;3.10;;;23.00;50.50;;;;;;4987677;28;20453;-70
2022/06/24 06:50:20;;;;;;;3.23;3.03;;;23.00;50.50;;;;;;4990080;28;20448;-66
2022/06/24 06:52:45;;;;;;;3.73;3.53;;;23.00;50.50;;;;;;4999059;28;20839;-71
2022/06/24 06:55:11;;;;;;;3.80;3.60;;;23.00;50.80;;;;;;4984293;28;20530;-68
2022/06/24 06:57:37;;;;;;;4.20;3.77;;;23.00;50.60;;;;;;4982319;28;20202;-66
2022/06/24 07:00:04;;;;;;;3.43;3.23;;;23.00;50.50;;;;;;4990084;28;20191;-67
2022/06/24 07:02:30;;;;;;;3.87;3.67;;;23.00;50.60;;;;;;4989184;28;20528;-70
2022/06/24 07:04:55;;;;;;;3.70;3.50;;;23.00;50.60;;;;;;4987973;28;20443;-69
2022/06/24 07:07:21;;;;;;;3.80;3.60;;;23.00;50.70;;;;;;5002014;28;20180;-69
2022/06/24 07:09:47;;;;;;;3.50;3.20;;;23.00;50.60;;;;;;4989813;28;20242;-70
2022/06/24 07:12:13;;;;;;;3.90;3.70;;;23.00;50.70;;;;;;4980445;28;20192;-67
2022/06/24 07:14:42;;;;;;;4.10;3.80;;;23.00;50.70;;;;;;4989212;28;20326;-67
2022/06/24 07:17:09;;;;;;;3.90;3.70;;;23.00;50.70;;;;;;4988795;28;20191;-67
2022/06/24 07:19:34;;;;;;;3.80;3.57;;;23.00;50.70;;;;;;4985298;28;20487;-68
2022/06/24 07:22:00;;;;;;;3.73;3.53;;;23.00;50.80;;;;;;4990633;28;23092;-69
2022/06/24 07:24:26;;;;;;;4.53;4.13;;;23.00;50.70;;;;;;4997344;28;20214;-70
2022/06/24 07:26:52;;;;;;;4.00;3.80;;;23.00;50.70;;;;;;4989630;28;20226;-68
2022/06/24 07:29:17;;;;;;;3.70;3.50;;;23.00;50.70;;;;;;4988323;28;20481;-70
2022/06/24 07:31:43;;;;;;;3.63;3.43;;;23.00;50.80;;;;;;4990276;28;20200;-66
2022/06/24 07:34:09;;;;;;;3.90;3.60;;;23.00;51.60;;;;;;4992132;28;20278;-69
2022/06/24 07:36:34;;;;;;;4.10;3.90;;;23.00;50.80;;;;;;4983227;28;20235;-67
2022/06/24 07:39:01;;;;;;;3.77;3.27;;;23.00;50.80;;;;;;4990483;28;20261;-68
2022/06/24 07:41:27;;;;;;;3.47;3.27;;;23.00;50.70;;;;;;4986716;28;20285;-69
2022/06/24 07:43:52;;;;;;;4.10;3.90;;;23.00;50.80;;;;;;4988620;28;20440;-67
2022/06/24 07:46:18;;;;;;;3.73;3.53;;;23.00;50.80;;;;;;4990903;28;20222;-69
2022/06/24 07:48:43;;;;;;;3.27;3.17;;;23.00;50.80;;;;;;4988254;28;20706;-69
2022/06/24 07:51:14;;;;;;;3.33;3.13;;;23.00;50.80;;;;;;4990129;28;20192;-67
2022/06/24 07:53:41;;;;;;;3.20;3.10;;;23.00;50.80;;;;;;4996445;28;20754;-69
2022/06/24 07:58:51;;;;;;;2.93;2.83;;;23.00;50.80;;;;;;4988275;28;21002;-70
2022/06/24 08:01:16;;;;;;;3.27;3.17;;;23.00;50.80;;;;;;4987824;28;20430;-69
2022/06/24 08:03:43;;;;;;;3.97;3.70;;;23.00;50.80;;;;;;5002278;28;20242;-67
2022/06/24 08:06:08;;;;;;;3.60;3.40;;;23.00;50.80;;;;;;5008091;28;20240;-66
2022/06/24 08:08:34;;;;;;;4.00;3.70;;;23.00;51.00;;;;;;5001004;28;20943;-65
2022/06/24 08:10:59;;;;;;;4.13;3.83;;;23.00;50.90;;;;;;5005832;28;20263;-67
2022/06/24 08:13:25;;;;;;;3.70;3.50;;;23.00;51.00;;;;;;5001242;28;20681;-67
2022/06/24 08:15:51;;;;;;;3.50;3.30;;;23.00;50.90;;;;;;5006866;28;20183;-66
2022/06/24 08:18:19;;;;;;;3.90;3.70;;;23.00;50.80;;;;;;4998148;28;20291;-66
2022/06/24 08:20:44;;;;;;;3.57;3.37;;;23.00;50.80;;;;;;4990001;28;20176;-68
2022/06/24 08:23:10;;;;;;;4.03;3.83;;;23.00;50.90;;;;;;4987772;28;20467;-70
2022/06/24 08:25:36;;;;;;;4.10;3.80;;;23.00;50.90;;;;;;4991491;28;23475;-70
2022/06/24 08:28:01;;;;;;;4.17;3.97;;;23.00;50.90;;;;;;4991166;28;20187;-66
2022/06/24 08:30:27;;;;;;;3.90;3.60;;;23.00;51.00;;;;;;4986482;28;20184;-68
2022/06/24 08:32:52;;;;;;;3.47;3.27;;;23.00;51.00;;;;;;4985274;28;20188;-70
2022/06/24 08:35:18;;;;;;;3.30;3.20;;;23.00;51.00;;;;;;4990846;28;20195;-72
2022/06/24 08:37:44;;;;;;;3.13;2.90;;;23.00;50.90;;;;;;4985567;28;20197;-66
2022/06/24 08:40:11;;;;;;;3.80;3.60;;;23.00;51.00;;;;;;4994108;28;20193;-66
2022/06/24 08:42:38;;;;;;;3.33;3.13;;;23.00;51.00;;;;;;4985938;28;20218;-66
2022/06/24 08:45:05;;;;;;;3.50;3.30;;;23.00;51.00;;;;;;4986799;28;20445;-66
2022/06/24 08:47:31;;;;;;;3.23;3.03;;;23.00;50.90;;;;;;4985797;28;20433;-70
2022/06/24 08:49:56;;;;;;;3.20;3.00;;;23.00;50.90;;;;;;4987047;28;20473;-66
2022/06/24 08:52:22;;;;;;;3.17;2.97;;;23.00;51.00;;;;;;4989134;28;20636;-67
2022/06/24 08:54:50;;;;;;;3.67;3.47;;;23.00;50.90;;;;;;4985073;28;20223;-68
2022/06/24 08:57:16;;;;;;;3.90;3.60;;;23.00;50.90;;;;;;4988396;28;20188;-66
2022/06/24 08:59:43;;;;;;;3.27;3.17;;;23.00;50.90;;;;;;4982821;28;23367;-73
2022/06/24 09:02:14;;;;;;;3.43;3.30;;;23.00;50.90;;;;;;4990211;28;20187;-71
2022/06/24 09:04:43;;;;;;;3.77;3.57;;;23.00;50.90;;;;;;4988971;28;20429;-70
2022/06/24 09:07:27;;;;;;;3.80;3.57;;;22.90;50.90;;;;;;4987360;28;20472;-66
2022/06/24 09:10:05;;;;;;;3.93;3.73;;;23.00;50.90;;;;;;4987620;28;20438;-71
2022/06/24 09:12:39;;;;;;;3.10;2.90;;;23.00;50.90;;;;;;5002737;28;20429;-66
2022/06/24 09:15:07;;;;;;;3.77;3.53;;;22.90;50.80;;;;;;5006307;28;20832;-68
2022/06/24 09:17:34;;;;;;;3.33;3.13;;;23.00;50.90;;;;;;5002370;28;20520;-64
2022/06/24 09:20:12;;;;;;;3.50;3.30;;;23.00;50.90;;;;;;5002642;28;20430;-69
2022/06/24 09:22:37;;;;;;;2.90;2.80;;;22.90;50.90;;;;;;4989581;28;20437;-66
2022/06/24 09:25:04;;;;;;;4.97;3.13;;;22.90;50.80;;;;;;5004547;28;20430;-66
2022/06/24 09:27:30;;;;;;;3.10;2.90;;;22.90;50.80;;;;;;5006475;28;20200;-66
2022/06/24 09:29:56;;;;;;;2.97;2.87;;;22.90;50.90;;;;;;4994133;28;20465;-67
2022/06/24 09:32:22;;;;;;;2.83;2.73;;;22.90;50.90;;;;;;4987679;28;21176;-67
2022/06/24 09:35:05;;;;;;;2.67;2.57;;;22.90;50.90;;;;;;4992290;28;20192;-67
2022/06/24 09:37:42;;;;;;;3.23;3.03;;;22.90;50.80;;;;;;4987247;28;21076;-68
2022/06/24 09:40:21;;;;;;;3.50;3.30;;;22.90;50.90;;;;;;4989462;28;20926;-72
2022/06/24 09:43:02;;;;;;;3.40;3.20;;;22.90;50.80;;;;;;4993184;28;20437;-67
2022/06/24 09:45:50;;;;;;;3.60;3.40;;;22.90;50.90;;;;;;4985978;28;20611;-68
2022/06/24 09:48:28;;;;;;;2.90;2.77;;;22.90;50.90;;;;;;4987698;28;20508;-67
2022/06/24 09:50:56;;;;;;;2.90;2.80;;;22.90;50.90;;;;;;4992642;28;20437;-67
2022/06/24 09:53:26;;;;;;;3.20;3.00;;;22.90;51.70;;;;;;4990182;28;20434;-67
2022/06/24 09:55:53;;;;;;;3.03;2.70;;;22.90;50.90;;;;;;4986949;28;20907;-72
2022/06/24 09:58:19;;;;;;;2.70;2.60;;;22.90;50.90;;;;;;4994077;28;25055;-67
2022/06/24 10:00:46;;;;;;;3.33;3.20;;;22.90;50.90;;;;;;4991438;28;20426;-71
2022/06/24 10:03:15;;;;;;;3.57;3.37;;;22.90;50.90;;;;;;4987312;28;20492;-72
2022/06/24 10:05:51;;;;;;;3.20;3.10;;;22.90;50.90;;;;;;4986527;28;22538;-71
2022/06/24 10:08:19;;;;;;;3.60;3.40;;;22.90;50.90;;;;;;4988615;28;20433;-66
2022/06/24 10:10:48;;;;;;;3.23;3.03;;;22.90;50.90;;;;;;4989354;28;20602;-67
2022/06/24 10:13:23;;;;;;;2.97;2.87;;;22.90;50.90;;;;;;4994390;28;20994;-66
2022/06/24 10:15:49;;;;;;;3.00;2.80;;;22.90;50.90;;;;;;4991019;28;20464;-66
2022/06/24 10:18:19;;;;;;;3.13;3.03;;;22.90;50.90;;;;;;4990049;28;20469;-71
2022/06/24 10:20:45;;;;;;;2.87;2.77;;;22.90;50.90;;;;;;4986673;28;20466;-66
2022/06/24 10:23:37;;;;;;;3.03;2.93;;;22.90;50.90;;;;;;4989108;28;20457;-69
2022/06/24 10:26:19;;;;;;;2.87;2.77;;;22.90;50.90;;;;;;4981716;28;20584;-69
2022/06/24 10:28:59;;;;;;;2.90;2.80;;;22.90;50.90;;;;;;4983492;28;20967;-69
2022/06/24 10:31:37;;;;;;;2.53;2.43;;;22.90;50.90;;;;;;4983061;28;22101;-68
2022/06/24 10:34:03;;;;;;;2.80;2.70;;;22.90;51.00;;;;;;4983780;28;22552;-68
2022/06/24 10:36:32;;;;;;;2.70;2.60;;;22.90;50.90;;;;;;4987202;28;20463;-66
2022/06/24 10:39:21;;;;;;;3.67;2.87;;;22.90;50.90;;;;;;4988441;28;20469;-67
2022/06/24 10:41:59;;;;;;;2.37;2.27;;;22.90;50.90;;;;;;4990453;28;20540;-67
2022/06/24 10:44:49;;;;;;;2.70;2.60;;;22.90;50.90;;;;;;4988113;28;20446;-67
2022/06/24 10:47:15;;;;;;;2.73;2.63;;;22.90;50.80;;;;;;4984312;28;20498;-70
2022/06/24 10:49:54;;;;;;;3.00;2.80;;;22.90;50.80;;;;;;4989490;28;20445;-70
2022/06/24 10:52:50;;;;;;;2.70;2.60;;;22.90;50.90;;;;;;4987880;28;20180;-69
2022/06/24 10:55:28;;;;;;;2.97;2.77;;;22.90;50.80;;;;;;4965206;28;20445;-69
2022/06/24 10:57:56;;;;;;;2.70;2.60;;;22.90;50.80;;;;;;4990511;28;20525;-67
2022/06/24 11:00:28;;;;;;;3.10;2.90;;;22.90;50.80;;;;;;4983566;28;20536;-69
2022/06/24 11:03:16;;;;;;;2.93;2.73;;;22.90;50.80;;;;;;4984667;28;20438;-72
2022/06/24 11:05:44;;;;;;;2.90;2.70;;;22.90;50.80;;;;;;4982642;28;20492;-67
2022/06/24 11:08:17;;;;;;;3.20;3.00;;;22.90;50.80;;;;;;4984553;28;20453;-67
2022/06/24 11:10:43;;;;;;;2.73;2.63;;;22.90;50.80;;;;;;4983375;28;20466;-68
2022/06/24 11:13:10;;;;;;;3.17;3.00;;;22.90;50.80;;;;;;4993149;28;20438;-65
2022/06/24 11:15:47;;;;;;;3.00;2.80;;;22.90;50.80;;;;;;4989032;28;20445;-67
2022/06/24 11:18:23;;;;;;;3.03;2.83;;;22.90;50.80;;;;;;4983368;28;20448;-69
2022/06/24 11:20:54;;;;;;;3.23;3.03;;;22.90;50.80;;;;;;4982960;28;20421;-74
2022/06/24 11:23:21;;;;;;;2.80;2.70;;;22.90;50.80;;;;;;4988032;28;20488;-65
2022/06/24 11:25:52;;;;;;;2.87;2.70;;;22.90;50.80;;;;;;4985581;28;20583;-68
2022/06/24 11:28:24;;;;;;;3.40;3.20;;;22.90;50.80;;;;;;4984987;28;20489;-68
2022/06/24 11:30:52;;;;;;;2.77;2.60;;;22.90;50.80;;;;;;4984567;28;20572;-70
2022/06/24 11:33:19;;;;;;;3.10;3.00;;;22.90;50.80;;;;;;4982811;28;20433;-67
2022/06/24 11:35:49;;;;;;;3.07;2.97;;;22.90;50.80;;;;;;4983087;28;20453;-68
2022/06/24 11:38:16;;;;;;;3.43;3.23;;;22.90;50.90;;;;;;4965406;28;20434;-69
2022/06/24 11:40:42;;;;;;;2.50;2.40;;;22.90;50.80;;;;;;4987289;28;20802;-68
2022/06/24 11:43:13;;;;;;;2.80;2.60;;;22.90;51.60;;;;;;4983817;28;20437;-65
2022/06/24 11:45:42;;;;;;;3.20;3.00;;;22.90;50.80;;;;;;4988246;28;20216;-67
2022/06/24 11:48:11;;;;;;;3.03;2.93;;;22.90;50.90;;;;;;4985765;28;20441;-66
2022/06/24 11:50:38;;;;;;;3.67;3.37;;;22.90;51.00;;;;;;4989286;28;20438;-68
2022/06/24 11:53:05;;;;;;;2.90;2.80;;;22.90;50.90;;;;;;4987357;28;20788;-66
2022/06/24 11:55:38;;;;;;;3.83;3.20;;;22.90;50.90;;;;;;4987391;28;20495;-67
2022/06/24 11:58:06;;;;;;;3.00;2.90;;;22.90;50.90;;;;;;4984854;28;23549;-66
2022/06/24 12:00:36;;;;;;;2.80;2.70;;;22.90;50.90;;;;;;4990394;28;20437;-69
2022/06/24 12:03:05;;;;;;;3.37;3.17;;;22.90;50.90;;;;;;4981022;28;20469;-69
2022/06/24 12:05:32;;;;;;;2.97;2.77;;;22.90;50.90;;;;;;4986566;28;20503;-69
2022/06/24 12:07:59;;;;;;;3.17;3.07;;;22.90;50.90;;;;;;4982331;28;20513;-66
2022/06/24 12:10:24;;;;;;;3.43;3.17;;;22.90;50.90;;;;;;4989000;28;20441;-67
2022/06/24 12:13:00;;;;;;;3.33;3.17;;;22.90;51.00;;;;;;4981560;28;20444;-69
2022/06/24 12:15:33;;;;;;;3.00;2.90;;;22.90;50.90;;;;;;4989248;28;20263;-66
2022/06/24 12:17:59;;;;;;;2.73;2.63;;;22.90;51.00;;;;;;5000378;28;20523;-66
2022/06/24 12:20:26;;;;;;;2.90;2.80;;;22.90;50.90;;;;;;4986179;28;20430;-71
2022/06/24 12:23:18;;;;;;;2.90;2.80;;;22.90;51.00;;;;;;4986111;28;20188;-67
2022/06/24 12:25:50;;;;;;;3.33;3.13;;;22.90;50.90;;;;;;4986943;28;20457;-66
2022/06/24 12:28:27;;;;;;;2.90;2.80;;;22.90;50.90;;;;;;4986547;28;20465;-66
2022/06/24 12:31:06;;;;;;;2.90;2.80;;;22.90;50.90;;;;;;4996560;28;20435;-66
2022/06/24 12:33:34;;;;;;;3.70;3.50;;;22.90;50.90;;;;;;4985779;28;20441;-67
2022/06/24 12:36:09;;;;;;;3.50;3.30;;;22.90;51.70;;;;;;4987459;28;20440;-69
2022/06/24 12:38:39;;;;;;;3.67;3.47;;;22.90;50.90;;;;;;4987519;28;20432;-66
2022/06/24 12:41:10;;;;;;;2.83;2.73;;;22.90;51.70;;;;;;4983803;28;21074;-66
2022/06/24 12:43:36;;;;;;;2.60;2.50;;;22.90;50.90;;;;;;4991011;28;20519;-66
2022/06/24 12:46:04;;;;;;;3.27;3.17;;;22.90;50.90;;;;;;4984821;28;20465;-66
2022/06/24 12:51:14;;;;;;;2.90;2.80;;;22.90;50.90;;;;;;4992575;28;20506;-65
2022/06/24 12:53:49;;;;;;;3.70;3.50;;;22.90;50.90;;;;;;4990393;28;20987;-66
2022/06/24 12:56:15;;;;;;;3.53;3.20;;;22.90;50.80;;;;;;4988071;28;20722;-71
2022/06/24 12:58:40;;;;;;;3.43;3.23;;;22.90;50.90;;;;;;4987255;28;20425;-67
2022/06/24 13:01:06;;;;;;;3.20;3.10;;;22.90;50.80;;;;;;4984646;28;20216;-69
2022/06/24 13:03:31;;;;;;;2.93;2.83;;;22.90;50.90;;;;;;4999261;28;20193;-70